Terminal Aerodrome Forecast
Issued by NWS

Home | Current Version | Previous Version | Text Only | Print | Product List | Glossary On
Versions: 1 2 3 4 5 6 7 8 9 10 11 12 13 14 15 16 17
000
FTUS44 KBMX 061720
TAFTCL
TAF
KTCL 061720Z 0618/0718 26012G20KT P6SM SCT015 OVC030
     FM070000 33006KT P6SM OVC004
     FM071200 35006KT P6SM OVC004=

USA.gov is the U.S. government's official web portal to all federal, state and local government web resources and services.